sensor_id;sensor_type;location;lat;lon;timestamp;temperature;humidity
9768;DHT22;4923;52.520;13.494;2023-10-13T00:02:34;14.00;99.90
9768;DHT22;4923;52.520;13.494;2023-10-13T00:05:23;14.00;99.90
9768;DHT22;4923;52.520;13.494;2023-10-13T00:08:12;14.00;99.90
9768;DHT22;4923;52.520;13.494;2023-10-13T00:10:59;14.00;99.90
9768;DHT22;4923;52.520;13.494;2023-10-13T00:13:46;13.90;99.90
9768;DHT22;4923;52.520;13.494;2023-10-13T00:16:37;13.90;99.90
9768;DHT22;4923;52.520;13.494;2023-10-13T00:19:27;14.00;99.90
9768;DHT22;4923;52.520;13.494;2023-10-13T00:22:15;14.00;99.90
9768;DHT22;4923;52.520;13.494;2023-10-13T00:25:02;14.00;99.90
9768;DHT22;4923;52.520;13.494;2023-10-13T00:27:49;14.00;99.90
9768;DHT22;4923;52.520;13.494;2023-10-13T00:30:38;14.00;99.90
9768;DHT22;4923;52.520;13.494;2023-10-13T00:33:26;14.00;99.90
9768;DHT22;4923;52.520;13.494;2023-10-13T00:36:13;14.00;99.90
9768;DHT22;4923;52.520;13.494;2023-10-13T00:39:05;13.90;99.90
9768;DHT22;4923;52.520;13.494;2023-10-13T00:41:52;13.90;99.90
9768;DHT22;4923;52.520;13.494;2023-10-13T00:44:42;13.90;99.90
9768;DHT22;4923;52.520;13.494;2023-10-13T00:47:30;13.90;99.90
9768;DHT22;4923;52.520;13.494;2023-10-13T00:50:36;13.90;99.90
9768;DHT22;4923;52.520;13.494;2023-10-13T00:53:24;13.90;99.90
9768;DHT22;4923;52.520;13.494;2023-10-13T00:56:15;13.90;99.90
9768;DHT22;4923;52.520;13.494;2023-10-13T00:59:09;13.90;99.90
9768;DHT22;4923;52.520;13.494;2023-10-13T01:01:59;13.80;99.90
9768;DHT22;4923;52.520;13.494;2023-10-13T01:05:07;13.80;99.90
9768;DHT22;4923;52.520;13.494;2023-10-13T01:07:59;13.70;99.90
9768;DHT22;4923;52.520;13.494;2023-10-13T01:10:47;13.70;99.90
9768;DHT22;4923;52.520;13.494;2023-10-13T01:13:35;13.80;99.90
9768;DHT22;4923;52.520;13.494;2023-10-13T01:16:23;13.70;99.90
9768;DHT22;4923;52.520;13.494;2023-10-13T01:19:13;13.70;99.90
9768;DHT22;4923;52.520;13.494;2023-10-13T01:22:02;13.70;99.90
9768;DHT22;4923;52.520;13.494;2023-10-13T01:24:51;13.70;99.90
9768;DHT22;4923;52.520;13.494;2023-10-13T01:27:49;13.80;99.90
9768;DHT22;4923;52.520;13.494;2023-10-13T01:30:36;13.70;99.90
9768;DHT22;4923;52.520;13.494;2023-10-13T01:33:25;13.70;99.90
9768;DHT22;4923;52.520;13.494;2023-10-13T01:36:13;13.70;99.90
9768;DHT22;4923;52.520;13.494;2023-10-13T01:39:00;13.70;99.90
9768;DHT22;4923;52.520;13.494;2023-10-13T01:41:48;13.80;99.90
9768;DHT22;4923;52.520;13.494;2023-10-13T01:44:40;13.70;99.90
9768;DHT22;4923;52.520;13.494;2023-10-13T01:47:27;13.70;99.90
9768;DHT22;4923;52.520;13.494;2023-10-13T01:50:13;13.70;99.90
9768;DHT22;4923;52.520;13.494;2023-10-13T01:53:06;13.70;99.90
9768;DHT22;4923;52.520;13.494;2023-10-13T01:55:57;13.70;99.90
9768;DHT22;4923;52.520;13.494;2023-10-13T01:58:45;13.70;99.90
9768;DHT22;4923;52.520;13.494;2023-10-13T02:01:33;13.70;99.90
9768;DHT22;4923;52.520;13.494;2023-10-13T02:04:20;13.70;99.90
9768;DHT22;4923;52.520;13.494;2023-10-13T02:07:07;13.70;99.90
9768;DHT22;4923;52.520;13.494;2023-10-13T02:09:53;13.70;99.90
9768;DHT22;4923;52.520;13.494;2023-10-13T02:12:41;13.70;99.90
9768;DHT22;4923;52.520;13.494;2023-10-13T02:15:31;13.70;99.90
9768;DHT22;4923;52.520;13.494;2023-10-13T02:18:20;13.70;99.90
9768;DHT22;4923;52.520;13.494;2023-10-13T02:21:11;13.70;99.90
9768;DHT22;4923;52.520;13.494;2023-10-13T02:24:01;13.70;99.90
9768;DHT22;4923;52.520;13.494;2023-10-13T02:26:50;13.80;99.90
9768;DHT22;4923;52.520;13.494;2023-10-13T02:29:36;13.70;99.90
9768;DHT22;4923;52.520;13.494;2023-10-13T02:32:26;13.70;99.90
9768;DHT22;4923;52.520;13.494;2023-10-13T02:35:13;13.80;99.90
9768;DHT22;4923;52.520;13.494;2023-10-13T02:38:03;13.70;99.90
9768;DHT22;4923;52.520;13.494;2023-10-13T02:40:56;13.70;99.90
9768;DHT22;4923;52.520;13.494;2023-10-13T02:43:51;13.70;99.90
9768;DHT22;4923;52.520;13.494;2023-10-13T02:46:37;13.70;99.90
9768;DHT22;4923;52.520;13.494;2023-10-13T02:49:27;13.80;99.90
9768;DHT22;4923;52.520;13.494;2023-10-13T02:52:13;13.70;99.90
9768;DHT22;4923;52.520;13.494;2023-10-13T02:55:00;13.70;99.90
9768;DHT22;4923;52.520;13.494;2023-10-13T02:57:46;13.70;99.90
9768;DHT22;4923;52.520;13.494;2023-10-13T03:00:35;13.80;99.90
9768;DHT22;4923;52.520;13.494;2023-10-13T03:03:26;13.80;99.90
9768;DHT22;4923;52.520;13.494;2023-10-13T03:06:17;13.80;99.90
9768;DHT22;4923;52.520;13.494;2023-10-13T03:09:08;13.80;99.90
9768;DHT22;4923;52.520;13.494;2023-10-13T03:12:00;13.80;99.90
9768;DHT22;4923;52.520;13.494;2023-10-13T03:14:46;13.90;99.90
9768;DHT22;4923;52.520;13.494;2023-10-13T03:17:34;13.80;99.90
9768;DHT22;4923;52.520;13.494;2023-10-13T03:20:20;13.90;99.90
9768;DHT22;4923;52.520;13.494;2023-10-13T03:23:10;13.90;99.90
9768;DHT22;4923;52.520;13.494;2023-10-13T03:25:56;13.90;99.90
9768;DHT22;4923;52.520;13.494;2023-10-13T03:28:45;13.90;99.90
9768;DHT22;4923;52.520;13.494;2023-10-13T03:31:37;13.90;99.90
9768;DHT22;4923;52.520;13.494;2023-10-13T03:34:24;13.90;99.90
9768;DHT22;4923;52.520;13.494;2023-10-13T03:37:16;13.90;99.90
9768;DHT22;4923;52.520;13.494;2023-10-13T03:40:08;14.00;99.90
9768;DHT22;4923;52.520;13.494;2023-10-13T03:43:16;13.90;99.90
9768;DHT22;4923;52.520;13.494;2023-10-13T03:46:07;14.00;99.90
9768;DHT22;4923;52.520;13.494;2023-10-13T03:48:54;13.90;99.90
9768;DHT22;4923;52.520;13.494;2023-10-13T03:51:48;13.90;99.90
9768;DHT22;4923;52.520;13.494;2023-10-13T03:54:35;13.90;99.90
9768;DHT22;4923;52.520;13.494;2023-10-13T03:57:23;13.90;99.90
9768;DHT22;4923;52.520;13.494;2023-10-13T04:00:12;14.00;99.90
9768;DHT22;4923;52.520;13.494;2023-10-13T04:03:07;14.00;99.90
9768;DHT22;4923;52.520;13.494;2023-10-13T04:05:55;14.00;99.90
9768;DHT22;4923;52.520;13.494;2023-10-13T04:08:52;14.00;99.90
9768;DHT22;4923;52.520;13.494;2023-10-13T04:11:52;14.10;99.90
9768;DHT22;4923;52.520;13.494;2023-10-13T04:14:55;14.10;99.90
9768;DHT22;4923;52.520;13.494;2023-10-13T04:17:59;14.10;99.90
9768;DHT22;4923;52.520;13.494;2023-10-13T04:20:52;14.10;99.90
9768;DHT22;4923;52.520;13.494;2023-10-13T04:23:53;14.10;99.90
9768;DHT22;4923;52.520;13.494;2023-10-13T04:26:55;14.20;99.90
9768;DHT22;4923;52.520;13.494;2023-10-13T04:30:00;14.20;99.90
9768;DHT22;4923;52.520;13.494;2023-10-13T04:33:03;14.20;99.90
9768;DHT22;4923;52.520;13.494;2023-10-13T04:36:13;14.20;99.90
9768;DHT22;4923;52.520;13.494;2023-10-13T04:39:03;14.20;99.90
9768;DHT22;4923;52.520;13.494;2023-10-13T04:41:56;14.20;99.90
9768;DHT22;4923;52.520;13.494;2023-10-13T04:44:56;14.20;99.90
9768;DHT22;4923;52.520;13.494;2023-10-13T04:47:50;14.20;99.90
9768;DHT22;4923;52.520;13.494;2023-10-13T04:50:44;14.20;99.90
9768;DHT22;4923;52.520;13.494;2023-10-13T04:53:32;14.30;99.90
9768;DHT22;4923;52.520;13.494;2023-10-13T04:56:19;14.30;99.90
9768;DHT22;4923;52.520;13.494;2023-10-13T04:59:38;14.30;99.90
9768;DHT22;4923;52.520;13.494;2023-10-13T05:02:48;14.30;99.90
9768;DHT22;4923;52.520;13.494;2023-10-13T05:05:50;14.30;99.90
9768;DHT22;4923;52.520;13.494;2023-10-13T05:08:54;14.40;99.90
9768;DHT22;4923;52.520;13.494;2023-10-13T05:11:59;14.40;99.90
9768;DHT22;4923;52.520;13.494;2023-10-13T05:15:04;14.30;99.90
9768;DHT22;4923;52.520;13.494;2023-10-13T05:18:08;14.40;99.90
9768;DHT22;4923;52.520;13.494;2023-10-13T05:21:14;14.50;99.90
9768;DHT22;4923;52.520;13.494;2023-10-13T05:24:18;14.50;99.90
9768;DHT22;4923;52.520;13.494;2023-10-13T05:27:23;14.50;99.90
9768;DHT22;4923;52.520;13.494;2023-10-13T05:30:36;14.50;99.90
9768;DHT22;4923;52.520;13.494;2023-10-13T05:33:40;14.50;99.90
9768;DHT22;4923;52.520;13.494;2023-10-13T05:36:46;14.60;99.90
9768;DHT22;4923;52.520;13.494;2023-10-13T05:39:51;14.60;99.90
9768;DHT22;4923;52.520;13.494;2023-10-13T05:42:55;14.60;99.90
9768;DHT22;4923;52.520;13.494;2023-10-13T05:46:15;14.70;99.90
9768;DHT22;4923;52.520;13.494;2023-10-13T05:49:21;14.70;99.90
9768;DHT22;4923;52.520;13.494;2023-10-13T05:52:36;14.70;99.90
9768;DHT22;4923;52.520;13.494;2023-10-13T05:55:41;14.70;99.90
9768;DHT22;4923;52.520;13.494;2023-10-13T05:58:45;14.80;99.90
9768;DHT22;4923;52.520;13.494;2023-10-13T06:01:50;14.80;99.90
9768;DHT22;4923;52.520;13.494;2023-10-13T06:04:55;14.80;99.90
9768;DHT22;4923;52.520;13.494;2023-10-13T06:08:06;14.80;99.90
9768;DHT22;4923;52.520;13.494;2023-10-13T06:11:10;14.90;99.90
9768;DHT22;4923;52.520;13.494;2023-10-13T06:14:15;15.00;99.90
9768;DHT22;4923;52.520;13.494;2023-10-13T06:17:20;15.10;99.90
9768;DHT22;4923;52.520;13.494;2023-10-13T06:20:24;15.20;99.90
9768;DHT22;4923;52.520;13.494;2023-10-13T06:23:30;15.30;99.90
9768;DHT22;4923;52.520;13.494;2023-10-13T06:26:34;15.40;99.90
9768;DHT22;4923;52.520;13.494;2023-10-13T06:29:39;15.40;99.90
9768;DHT22;4923;52.520;13.494;2023-10-13T06:32:26;15.40;99.90
9768;DHT22;4923;52.520;13.494;2023-10-13T06:35:13;15.40;99.90
9768;DHT22;4923;52.520;13.494;2023-10-13T06:38:08;15.40;99.90
9768;DHT22;4923;52.520;13.494;2023-10-13T06:41:08;15.40;99.90
9768;DHT22;4923;52.520;13.494;2023-10-13T06:44:05;15.40;99.90
9768;DHT22;4923;52.520;13.494;2023-10-13T06:47:00;15.40;99.90
9768;DHT22;4923;52.520;13.494;2023-10-13T06:49:50;15.40;99.90
9768;DHT22;4923;52.520;13.494;2023-10-13T06:52:37;15.50;99.90
9768;DHT22;4923;52.520;13.494;2023-10-13T06:55:24;15.50;99.90
9768;DHT22;4923;52.520;13.494;2023-10-13T06:58:14;15.60;99.90
9768;DHT22;4923;52.520;13.494;2023-10-13T07:01:06;15.70;99.90
9768;DHT22;4923;52.520;13.494;2023-10-13T07:04:00;15.80;99.90
9768;DHT22;4923;52.520;13.494;2023-10-13T07:06:48;15.90;99.90
9768;DHT22;4923;52.520;13.494;2023-10-13T07:09:36;16.10;99.90
9768;DHT22;4923;52.520;13.494;2023-10-13T07:12:26;16.30;99.90
9768;DHT22;4923;52.520;13.494;2023-10-13T07:15:14;16.50;99.90
9768;DHT22;4923;52.520;13.494;2023-10-13T07:18:06;16.80;99.90
9768;DHT22;4923;52.520;13.494;2023-10-13T07:20:52;17.00;99.90
9768;DHT22;4923;52.520;13.494;2023-10-13T07:23:43;17.10;99.90
9768;DHT22;4923;52.520;13.494;2023-10-13T07:26:46;17.30;99.90
9768;DHT22;4923;52.520;13.494;2023-10-13T07:29:43;17.40;99.90
9768;DHT22;4923;52.520;13.494;2023-10-13T07:32:31;17.50;99.90
9768;DHT22;4923;52.520;13.494;2023-10-13T07:35:21;17.50;99.90
9768;DHT22;4923;52.520;13.494;2023-10-13T07:38:10;17.60;99.90
9768;DHT22;4923;52.520;13.494;2023-10-13T07:40:59;17.70;99.90
9768;DHT22;4923;52.520;13.494;2023-10-13T07:43:52;17.70;99.90
9768;DHT22;4923;52.520;13.494;2023-10-13T07:46:43;17.70;99.90
9768;DHT22;4923;52.520;13.494;2023-10-13T07:49:37;17.80;99.90
9768;DHT22;4923;52.520;13.494;2023-10-13T07:52:24;17.90;99.90
9768;DHT22;4923;52.520;13.494;2023-10-13T07:55:13;17.90;99.90
9768;DHT22;4923;52.520;13.494;2023-10-13T07:58:05;17.90;99.90
9768;DHT22;4923;52.520;13.494;2023-10-13T08:00:53;18.10;99.90
9768;DHT22;4923;52.520;13.494;2023-10-13T08:03:52;18.10;99.90
9768;DHT22;4923;52.520;13.494;2023-10-13T08:06:51;18.10;99.90
9768;DHT22;4923;52.520;13.494;2023-10-13T08:09:48;18.10;99.90
9768;DHT22;4923;52.520;13.494;2023-10-13T08:12:37;18.10;99.90
9768;DHT22;4923;52.520;13.494;2023-10-13T08:15:27;18.10;99.90
9768;DHT22;4923;52.520;13.494;2023-10-13T08:18:19;18.10;99.90
9768;DHT22;4923;52.520;13.494;2023-10-13T08:21:15;18.20;99.90
9768;DHT22;4923;52.520;13.494;2023-10-13T08:24:09;18.20;99.90
9768;DHT22;4923;52.520;13.494;2023-10-13T08:27:01;18.20;99.90
9768;DHT22;4923;52.520;13.494;2023-10-13T08:30:02;18.40;99.90
9768;DHT22;4923;52.520;13.494;2023-10-13T08:33:14;18.60;99.90
9768;DHT22;4923;52.520;13.494;2023-10-13T08:36:07;18.80;99.90
9768;DHT22;4923;52.520;13.494;2023-10-13T08:39:15;19.00;99.90
9768;DHT22;4923;52.520;13.494;2023-10-13T08:42:29;19.00;99.90
9768;DHT22;4923;52.520;13.494;2023-10-13T08:45:31;19.00;99.90
9768;DHT22;4923;52.520;13.494;2023-10-13T08:48:36;19.00;99.90
9768;DHT22;4923;52.520;13.494;2023-10-13T08:51:23;19.00;99.90
9768;DHT22;4923;52.520;13.494;2023-10-13T08:54:32;19.00;99.90
9768;DHT22;4923;52.520;13.494;2023-10-13T08:57:25;19.10;99.90
9768;DHT22;4923;52.520;13.494;2023-10-13T09:00:19;19.20;99.90
9768;DHT22;4923;52.520;13.494;2023-10-13T09:03:35;19.10;99.90
9768;DHT22;4923;52.520;13.494;2023-10-13T09:06:25;19.20;99.90
9768;DHT22;4923;52.520;13.494;2023-10-13T09:09:12;19.20;99.90
9768;DHT22;4923;52.520;13.494;2023-10-13T09:12:15;19.10;99.90
9768;DHT22;4923;52.520;13.494;2023-10-13T09:15:06;19.20;99.90
9768;DHT22;4923;52.520;13.494;2023-10-13T09:18:03;19.20;99.90
9768;DHT22;4923;52.520;13.494;2023-10-13T09:20:59;19.20;99.90
9768;DHT22;4923;52.520;13.494;2023-10-13T09:24:09;19.30;99.90
9768;DHT22;4923;52.520;13.494;2023-10-13T09:27:09;19.20;99.90
9768;DHT22;4923;52.520;13.494;2023-10-13T09:30:01;19.20;99.90
9768;DHT22;4923;52.520;13.494;2023-10-13T09:32:59;19.10;99.90
9768;DHT22;4923;52.520;13.494;2023-10-13T09:35:50;19.10;99.90
9768;DHT22;4923;52.520;13.494;2023-10-13T09:38:37;19.10;99.90
9768;DHT22;4923;52.520;13.494;2023-10-13T09:41:26;19.00;99.90
9768;DHT22;4923;52.520;13.494;2023-10-13T09:44:12;19.00;99.90
9768;DHT22;4923;52.520;13.494;2023-10-13T09:47:01;19.00;99.90
9768;DHT22;4923;52.520;13.494;2023-10-13T09:49:54;19.00;99.90
9768;DHT22;4923;52.520;13.494;2023-10-13T09:52:45;19.00;99.90
9768;DHT22;4923;52.520;13.494;2023-10-13T09:55:35;19.00;99.90
9768;DHT22;4923;52.520;13.494;2023-10-13T09:58:27;18.90;99.90
9768;DHT22;4923;52.520;13.494;2023-10-13T10:01:24;18.90;99.90
9768;DHT22;4923;52.520;13.494;2023-10-13T10:04:19;18.90;99.90
9768;DHT22;4923;52.520;13.494;2023-10-13T10:07:08;18.90;99.90
9768;DHT22;4923;52.520;13.494;2023-10-13T10:09:56;18.90;99.90
9768;DHT22;4923;52.520;13.494;2023-10-13T10:12:49;18.90;99.90
9768;DHT22;4923;52.520;13.494;2023-10-13T10:15:43;18.90;99.90
9768;DHT22;4923;52.520;13.494;2023-10-13T10:18:31;18.90;99.90
9768;DHT22;4923;52.520;13.494;2023-10-13T10:21:19;18.90;99.90
9768;DHT22;4923;52.520;13.494;2023-10-13T10:24:15;18.90;99.90
9768;DHT22;4923;52.520;13.494;2023-10-13T10:27:09;18.90;99.90
9768;DHT22;4923;52.520;13.494;2023-10-13T10:30:00;18.90;99.90
9768;DHT22;4923;52.520;13.494;2023-10-13T10:32:54;18.90;99.90
9768;DHT22;4923;52.520;13.494;2023-10-13T10:35:46;18.90;99.90
9768;DHT22;4923;52.520;13.494;2023-10-13T10:38:34;18.90;99.90
9768;DHT22;4923;52.520;13.494;2023-10-13T10:41:29;19.00;99.90
9768;DHT22;4923;52.520;13.494;2023-10-13T10:44:25;19.00;99.90
9768;DHT22;4923;52.520;13.494;2023-10-13T10:47:19;19.00;99.90
9768;DHT22;4923;52.520;13.494;2023-10-13T10:50:25;18.90;99.90
9768;DHT22;4923;52.520;13.494;2023-10-13T10:53:20;19.00;99.90
9768;DHT22;4923;52.520;13.494;2023-10-13T10:56:25;18.90;99.90
9768;DHT22;4923;52.520;13.494;2023-10-13T10:59:22;18.80;99.90
9768;DHT22;4923;52.520;13.494;2023-10-13T11:02:11;18.80;99.90
9768;DHT22;4923;52.520;13.494;2023-10-13T11:05:01;18.80;99.90
9768;DHT22;4923;52.520;13.494;2023-10-13T11:07:48;18.80;99.90
9768;DHT22;4923;52.520;13.494;2023-10-13T11:10:46;18.90;99.90
9768;DHT22;4923;52.520;13.494;2023-10-13T11:13:42;18.90;99.90
9768;DHT22;4923;52.520;13.494;2023-10-13T11:16:36;19.00;99.90
9768;DHT22;4923;52.520;13.494;2023-10-13T11:19:33;19.10;99.90
9768;DHT22;4923;52.520;13.494;2023-10-13T11:22:21;19.20;99.90
9768;DHT22;4923;52.520;13.494;2023-10-13T11:25:23;19.30;99.90
9768;DHT22;4923;52.520;13.494;2023-10-13T11:28:16;19.50;99.90
9768;DHT22;4923;52.520;13.494;2023-10-13T11:31:08;19.60;99.90
9768;DHT22;4923;52.520;13.494;2023-10-13T11:33:57;19.60;99.90
9768;DHT22;4923;52.520;13.494;2023-10-13T11:36:47;19.50;99.90
9768;DHT22;4923;52.520;13.494;2023-10-13T11:39:34;19.60;99.90
9768;DHT22;4923;52.520;13.494;2023-10-13T11:42:27;19.60;99.90
9768;DHT22;4923;52.520;13.494;2023-10-13T11:45:14;19.60;99.90
9768;DHT22;4923;52.520;13.494;2023-10-13T11:48:16;19.50;99.90
9768;DHT22;4923;52.520;13.494;2023-10-13T11:51:03;19.50;99.90
9768;DHT22;4923;52.520;13.494;2023-10-13T11:53:52;19.50;99.90
9768;DHT22;4923;52.520;13.494;2023-10-13T11:56:39;19.50;99.90
9768;DHT22;4923;52.520;13.494;2023-10-13T11:59:26;19.40;99.90
9768;DHT22;4923;52.520;13.494;2023-10-13T12:02:13;19.50;99.90
9768;DHT22;4923;52.520;13.494;2023-10-13T12:05:19;19.60;99.90
9768;DHT22;4923;52.520;13.494;2023-10-13T12:08:16;19.60;99.90
9768;DHT22;4923;52.520;13.494;2023-10-13T12:11:08;19.70;99.90
9768;DHT22;4923;52.520;13.494;2023-10-13T12:14:09;19.60;99.90
9768;DHT22;4923;52.520;13.494;2023-10-13T12:17:03;19.80;99.90
9768;DHT22;4923;52.520;13.494;2023-10-13T12:19:51;19.90;99.90
9768;DHT22;4923;52.520;13.494;2023-10-13T12:22:39;19.90;99.90
9768;DHT22;4923;52.520;13.494;2023-10-13T12:25:28;19.90;99.90
9768;DHT22;4923;52.520;13.494;2023-10-13T12:28:30;20.00;99.90
9768;DHT22;4923;52.520;13.494;2023-10-13T12:31:23;20.10;99.90
9768;DHT22;4923;52.520;13.494;2023-10-13T12:34:12;20.30;99.90
9768;DHT22;4923;52.520;13.494;2023-10-13T12:37:05;20.30;99.90
9768;DHT22;4923;52.520;13.494;2023-10-13T12:40:13;20.30;99.90
9768;DHT22;4923;52.520;13.494;2023-10-13T12:43:17;20.40;99.90
9768;DHT22;4923;52.520;13.494;2023-10-13T12:46:22;20.40;99.90
9768;DHT22;4923;52.520;13.494;2023-10-13T12:49:27;20.50;99.90
9768;DHT22;4923;52.520;13.494;2023-10-13T12:52:34;20.60;99.90
9768;DHT22;4923;52.520;13.494;2023-10-13T12:55:23;20.70;99.90
9768;DHT22;4923;52.520;13.494;2023-10-13T12:58:10;20.70;99.90
9768;DHT22;4923;52.520;13.494;2023-10-13T13:00:59;20.80;99.90
9768;DHT22;4923;52.520;13.494;2023-10-13T13:03:52;20.90;99.90
9768;DHT22;4923;52.520;13.494;2023-10-13T13:06:41;21.00;99.90
9768;DHT22;4923;52.520;13.494;2023-10-13T13:09:28;21.00;99.90
9768;DHT22;4923;52.520;13.494;2023-10-13T13:12:18;21.00;99.90
9768;DHT22;4923;52.520;13.494;2023-10-13T13:15:06;21.10;99.90
9768;DHT22;4923;52.520;13.494;2023-10-13T13:17:54;21.10;99.90
9768;DHT22;4923;52.520;13.494;2023-10-13T13:20:41;21.30;99.90
9768;DHT22;4923;52.520;13.494;2023-10-13T13:23:38;21.40;99.90
9768;DHT22;4923;52.520;13.494;2023-10-13T13:26:26;21.60;99.90
9768;DHT22;4923;52.520;13.494;2023-10-13T13:29:18;21.60;99.90
9768;DHT22;4923;52.520;13.494;2023-10-13T13:32:04;21.60;99.90
9768;DHT22;4923;52.520;13.494;2023-10-13T13:34:53;21.60;99.90
9768;DHT22;4923;52.520;13.494;2023-10-13T13:37:44;21.70;99.90
9768;DHT22;4923;52.520;13.494;2023-10-13T13:40:31;21.80;99.90
9768;DHT22;4923;52.520;13.494;2023-10-13T13:43:20;22.00;99.90
9768;DHT22;4923;52.520;13.494;2023-10-13T13:46:26;22.00;99.90
9768;DHT22;4923;52.520;13.494;2023-10-13T13:49:18;22.00;99.90
9768;DHT22;4923;52.520;13.494;2023-10-13T13:52:13;22.10;99.90
9768;DHT22;4923;52.520;13.494;2023-10-13T13:55:03;22.00;99.90
9768;DHT22;4923;52.520;13.494;2023-10-13T13:57:53;21.90;99.90
9768;DHT22;4923;52.520;13.494;2023-10-13T14:00:42;22.00;99.90
9768;DHT22;4923;52.520;13.494;2023-10-13T14:03:35;22.00;99.90
9768;DHT22;4923;52.520;13.494;2023-10-13T14:06:23;22.00;99.90
9768;DHT22;4923;52.520;13.494;2023-10-13T14:09:12;22.00;99.90
9768;DHT22;4923;52.520;13.494;2023-10-13T14:12:18;22.10;99.90
9768;DHT22;4923;52.520;13.494;2023-10-13T14:15:22;22.10;99.90
9768;DHT22;4923;52.520;13.494;2023-10-13T14:18:10;22.20;99.90
9768;DHT22;4923;52.520;13.494;2023-10-13T14:21:01;22.20;99.90
9768;DHT22;4923;52.520;13.494;2023-10-13T14:23:50;22.20;99.90
9768;DHT22;4923;52.520;13.494;2023-10-13T14:26:39;22.20;99.90
9768;DHT22;4923;52.520;13.494;2023-10-13T14:29:28;22.20;99.90
9768;DHT22;4923;52.520;13.494;2023-10-13T14:32:15;22.20;99.90
9768;DHT22;4923;52.520;13.494;2023-10-13T14:35:02;22.20;99.90
9768;DHT22;4923;52.520;13.494;2023-10-13T14:38:01;22.20;99.90
9768;DHT22;4923;52.520;13.494;2023-10-13T14:40:56;22.10;99.90
9768;DHT22;4923;52.520;13.494;2023-10-13T14:43:43;22.10;99.90
9768;DHT22;4923;52.520;13.494;2023-10-13T14:46:33;22.20;99.90
9768;DHT22;4923;52.520;13.494;2023-10-13T14:49:21;22.10;99.90
9768;DHT22;4923;52.520;13.494;2023-10-13T14:52:08;22.10;99.90
9768;DHT22;4923;52.520;13.494;2023-10-13T14:54:56;22.10;99.90
9768;DHT22;4923;52.520;13.494;2023-10-13T14:57:43;22.00;99.90
9768;DHT22;4923;52.520;13.494;2023-10-13T15:00:30;21.90;99.90
9768;DHT22;4923;52.520;13.494;2023-10-13T15:03:18;21.90;99.90
9768;DHT22;4923;52.520;13.494;2023-10-13T15:06:05;21.80;99.90
9768;DHT22;4923;52.520;13.494;2023-10-13T15:08:53;21.70;99.90
9768;DHT22;4923;52.520;13.494;2023-10-13T15:11:41;21.70;99.90
9768;DHT22;4923;52.520;13.494;2023-10-13T15:14:31;21.60;99.90
9768;DHT22;4923;52.520;13.494;2023-10-13T15:17:19;21.60;99.90
9768;DHT22;4923;52.520;13.494;2023-10-13T15:20:10;21.40;99.90
9768;DHT22;4923;52.520;13.494;2023-10-13T15:23:01;21.40;99.90
9768;DHT22;4923;52.520;13.494;2023-10-13T15:25:48;21.40;99.90
9768;DHT22;4923;52.520;13.494;2023-10-13T15:28:37;21.30;99.90
9768;DHT22;4923;52.520;13.494;2023-10-13T15:31:24;21.20;99.90
9768;DHT22;4923;52.520;13.494;2023-10-13T15:34:12;21.20;99.90
9768;DHT22;4923;52.520;13.494;2023-10-13T15:37:00;21.10;99.90
9768;DHT22;4923;52.520;13.494;2023-10-13T15:39:50;21.00;99.90
9768;DHT22;4923;52.520;13.494;2023-10-13T15:42:38;20.90;99.90
9768;DHT22;4923;52.520;13.494;2023-10-13T15:45:31;20.80;99.90
9768;DHT22;4923;52.520;13.494;2023-10-13T15:48:24;20.80;99.90
9768;DHT22;4923;52.520;13.494;2023-10-13T15:51:12;20.70;99.90
9768;DHT22;4923;52.520;13.494;2023-10-13T15:53:59;20.70;99.90
9768;DHT22;4923;52.520;13.494;2023-10-13T15:56:47;20.60;99.90
9768;DHT22;4923;52.520;13.494;2023-10-13T15:59:34;20.60;99.90
9768;DHT22;4923;52.520;13.494;2023-10-13T16:02:22;20.50;99.90
9768;DHT22;4923;52.520;13.494;2023-10-13T16:05:10;20.50;99.90
9768;DHT22;4923;52.520;13.494;2023-10-13T16:07:57;20.50;99.90
9768;DHT22;4923;52.520;13.494;2023-10-13T16:10:45;20.40;99.90
9768;DHT22;4923;52.520;13.494;2023-10-13T16:13:31;20.40;99.90
9768;DHT22;4923;52.520;13.494;2023-10-13T16:16:20;20.30;99.90
9768;DHT22;4923;52.520;13.494;2023-10-13T16:19:09;20.40;99.90
9768;DHT22;4923;52.520;13.494;2023-10-13T16:21:56;20.30;99.90
9768;DHT22;4923;52.520;13.494;2023-10-13T16:24:43;20.20;99.90
9768;DHT22;4923;52.520;13.494;2023-10-13T16:27:33;20.20;99.90
9768;DHT22;4923;52.520;13.494;2023-10-13T16:30:24;20.20;99.90
9768;DHT22;4923;52.520;13.494;2023-10-13T16:33:12;20.20;99.90
9768;DHT22;4923;52.520;13.494;2023-10-13T16:36:00;20.10;99.90
9768;DHT22;4923;52.520;13.494;2023-10-13T16:38:51;20.10;99.90
9768;DHT22;4923;52.520;13.494;2023-10-13T16:41:38;20.10;99.90
9768;DHT22;4923;52.520;13.494;2023-10-13T16:44:26;20.00;99.90
9768;DHT22;4923;52.520;13.494;2023-10-13T16:47:13;20.00;99.90
9768;DHT22;4923;52.520;13.494;2023-10-13T16:50:00;19.90;99.90
9768;DHT22;4923;52.520;13.494;2023-10-13T16:52:49;19.80;99.90
9768;DHT22;4923;52.520;13.494;2023-10-13T16:55:36;19.80;99.90
9768;DHT22;4923;52.520;13.494;2023-10-13T16:58:27;19.80;99.90
9768;DHT22;4923;52.520;13.494;2023-10-13T17:01:16;19.80;99.90
9768;DHT22;4923;52.520;13.494;2023-10-13T17:04:03;19.80;99.90
9768;DHT22;4923;52.520;13.494;2023-10-13T17:06:50;19.90;99.90
9768;DHT22;4923;52.520;13.494;2023-10-13T17:09:39;19.90;99.90
9768;DHT22;4923;52.520;13.494;2023-10-13T17:12:26;19.90;99.90
9768;DHT22;4923;52.520;13.494;2023-10-13T17:15:15;19.90;99.90
9768;DHT22;4923;52.520;13.494;2023-10-13T17:18:05;19.90;99.90
9768;DHT22;4923;52.520;13.494;2023-10-13T17:20:52;19.90;99.90
9768;DHT22;4923;52.520;13.494;2023-10-13T17:23:41;19.90;99.90
9768;DHT22;4923;52.520;13.494;2023-10-13T17:26:29;19.90;99.90
9768;DHT22;4923;52.520;13.494;2023-10-13T17:29:16;20.00;99.90
9768;DHT22;4923;52.520;13.494;2023-10-13T17:32:03;19.90;99.90
9768;DHT22;4923;52.520;13.494;2023-10-13T17:34:53;19.90;99.90
9768;DHT22;4923;52.520;13.494;2023-10-13T17:37:40;20.00;99.90
9768;DHT22;4923;52.520;13.494;2023-10-13T17:40:29;20.00;99.90
9768;DHT22;4923;52.520;13.494;2023-10-13T17:43:17;20.00;99.90
9768;DHT22;4923;52.520;13.494;2023-10-13T17:46:05;20.00;99.90
9768;DHT22;4923;52.520;13.494;2023-10-13T17:48:53;20.00;99.90
9768;DHT22;4923;52.520;13.494;2023-10-13T17:51:41;20.10;99.90
9768;DHT22;4923;52.520;13.494;2023-10-13T17:54:28;20.10;99.90
9768;DHT22;4923;52.520;13.494;2023-10-13T17:57:16;20.10;99.90
9768;DHT22;4923;52.520;13.494;2023-10-13T18:00:05;20.10;99.90
9768;DHT22;4923;52.520;13.494;2023-10-13T18:02:59;20.10;99.90
9768;DHT22;4923;52.520;13.494;2023-10-13T18:05:58;20.10;99.90
9768;DHT22;4923;52.520;13.494;2023-10-13T18:08:45;20.20;99.90
9768;DHT22;4923;52.520;13.494;2023-10-13T18:11:33;20.10;99.90
9768;DHT22;4923;52.520;13.494;2023-10-13T18:14:20;20.10;99.90
9768;DHT22;4923;52.520;13.494;2023-10-13T18:17:08;20.10;99.90
9768;DHT22;4923;52.520;13.494;2023-10-13T18:19:55;20.20;99.90
9768;DHT22;4923;52.520;13.494;2023-10-13T18:22:43;20.10;99.90
9768;DHT22;4923;52.520;13.494;2023-10-13T18:25:35;20.10;99.90
9768;DHT22;4923;52.520;13.494;2023-10-13T18:28:22;20.20;99.90